Sunday, August 28, 2016, 2:49 PM EDT

KESN, Easton / Newman Field

Location: Easton, MD, United States Lat: 38.8
Local Time: 2:49 PM EDT (18:49 GMT) Lon: -76.067
Time Zone: US/Eastern Elev: 72 ft

Show me the last for .
Show Decoded

2016-08-28 13:45 METAR KESN 281745Z 08009KT 10SM SCT120 32/22 A3026 =
2016-08-28 12:50 METAR KESN 281650Z 10005KT 10SM SKC 30/22 A3027 =
2016-08-28 11:50 METAR KESN 281550Z 14004KT 10SM SKC 30/22 A3028 =
2016-08-28 10:55 METAR KESN 281455Z 11004KT 10SM SKC 29/23 A3028 =
2016-08-28 09:45 METAR KESN 281345Z 07006KT 10SM SKC 27/24 A3029 =
2016-08-28 08:05 METAR KESN 281205Z 00000KT 7SM HZ SCT001 22/22 A3028 =
2016-08-28 07:45 METAR KESN 281145Z 00000KT 3/4SM BR OVC001 21/21 A3027 =
2016-08-28 06:45 METAR KESN 281045Z 00000KT 1/2SM FG OVC001 20/20 A3026 =
2016-08-28 06:05 METAR KESN 281005Z 00000KT 1 1/2SM BR BKN001 21/21 A3024 =
2016-08-28 05:51 METAR KESN 280951Z AUTO 00000KT 5SM BR CLR 21/21 A3024 RMK AO2 T02080208 =
2016-08-28 05:45 METAR KESN 280945Z 00000KT 3SM BR SKC 20/20 A3024 =
2016-08-28 05:38 METAR KESN 280938Z AUTO 00000KT 5SM BR CLR 21/21 A3024 RMK AO2 T02060206 =
2016-08-28 05:18 METAR KESN 280918Z AUTO 00000KT 7SM CLR 21/21 A3024 RMK AO2 T02130213 =
2016-08-28 04:58 METAR KESN 280858Z AUTO 00000KT 7SM CLR 22/22 A3023 RMK AO2 T02160216 =
2016-08-28 04:38 METAR KESN 280838Z AUTO 00000KT 7SM CLR 22/22 A3023 RMK AO2 T02190219 =
2016-08-28 04:18 METAR KESN 280818Z AUTO 00000KT 10SM CLR 22/22 A3023 =
2016-08-28 04:17 METAR KESN 280818Z AUTO 00000KT 10SM CLR 22/22 A3023 RMK AO2 T02190219 =
2016-08-28 03:57 METAR KESN 280757Z AUTO 00000KT 10SM CLR 22/22 A3022 RMK AO2 T02200220 =
2016-08-28 03:37 METAR KESN 280737Z AUTO 00000KT 10SM CLR 22/22 A3022 RMK AO2 T02220222 =
2016-08-28 03:17 METAR KESN 280717Z AUTO 00000KT 10SM CLR 22/22 A3022 RMK AO2 T02200220 =
2016-08-28 02:57 METAR KESN 280657Z AUTO 00000KT 10SM CLR 22/22 A3022 RMK AO2 T02200220 =
2016-08-28 02:37 METAR KESN 280637Z AUTO 12003KT 10SM CLR 22/22 A3022 RMK AO2 T02210221 =
2016-08-28 02:17 METAR KESN 280617Z AUTO 00000KT 10SM CLR 22/22 A3022 RMK AO2 T02210221 =
2016-08-28 01:57 METAR KESN 280557Z AUTO 08003KT 10SM CLR 22/22 A3022 RMK AO2 T02200220 10276
                 20220 403290220 =
2016-08-28 01:37 METAR KESN 280537Z AUTO 00000KT 10SM CLR 22/22 A3023 RMK AO2 T02200220 =
2016-08-28 01:17 METAR KESN 280517Z AUTO 00000KT 10SM CLR 22/22 A3023 =
2016-08-28 01:16 METAR KESN 280517Z AUTO 00000KT 10SM CLR 22/22 A3023 RMK AO2 T02220222 =
2016-08-28 00:57 METAR KESN 280457Z AUTO 00000KT 10SM CLR 22/22 A3024 RMK AO2 T02240224 =
2016-08-28 00:37 METAR KESN 280437Z AUTO 00000KT 10SM CLR 23/23 A3024 RMK AO2 T02250225 =
2016-08-28 00:17 METAR KESN 280417Z AUTO 00000KT 10SM CLR 23/23 A3024 RMK AO2 T02270225 =
2016-08-27 23:57 METAR KESN 280357Z AUTO 00000KT 10SM CLR 23/23 A3025 RMK AO2 T02280225 =
2016-08-27 23:37 METAR KESN 280337Z AUTO 00000KT 10SM CLR 23/23 A3025 RMK AO2 T02300225 =
2016-08-27 23:17 METAR KESN 280317Z AUTO 00000KT 10SM CLR 23/23 A3024 RMK AO2 T02330226 =
2016-08-27 22:57 METAR KESN 280257Z AUTO 13003KT 10SM CLR 24/23 A3024 RMK AO2 T02350226 =
2016-08-27 22:37 METAR KESN 280237Z AUTO 12004KT 10SM CLR 24/23 A3024 RMK AO2 T02370226 =
2016-08-27 22:17 METAR KESN 280217Z AUTO 14003KT 10SM CLR 24/23 A3024 RMK AO2 T02400225 =
2016-08-27 21:57 METAR KESN 280157Z AUTO 12004KT 10SM CLR 24/22 A3023 RMK AO2 T02410220 =
2016-08-27 20:45 METAR KESN 280045Z 08003KT 10SM SKC 25/21 A3021 =
2016-08-27 19:50 METAR KESN 272350Z 00000KT 10SM SKC 28/20 A3019 =
2016-08-27 18:55 METAR KESN 272255Z 14004KT 10SM SKC 30/20 A3018 =
2016-08-27 17:55 METAR KESN 272155Z 08004KT 10SM SKC 32/20 A3017 =
2016-08-27 16:45 METAR KESN 272045Z 06006KT 10SM SKC 33/19 A3018 =
2016-08-27 15:55 METAR KESN 271955Z 05005KT 10SM SKC 33/20 A3018 =
2016-08-27 14:55 METAR KESN 271855Z 08005KT 10SM SKC 32/20 A3019 =

Support USWX by starting your Amazon purchase here.